Time;durP1;ratioP1;P1;durP2;ratioP2;P2;SDS_P1;SDS_P2;PMS_P1;PMS_P2;Temp;Humidity;BMP_temperature;BMP_pressure;BME280_temperature;BME280_humidity;BME280_pressure;Samples;Min_cycle;Max_cycle;Signal;HPM_P1;HPM_P2
2021/04/19 00:00:20;;;;;;;7.32;4.18;;;14.00;44.40;;;;;;5015853;28;20498;-79
2021/04/19 00:02:46;;;;;;;6.90;3.50;;;14.00;44.40;;;;;;5016320;28;20049;-80
2021/04/19 00:05:15;;;;;;;7.05;4.10;;;13.90;44.40;;;;;;5015922;28;20046;-79
2021/04/19 00:07:42;;;;;;;5.00;3.40;;;13.90;44.40;;;;;;5015908;28;20053;-80
2021/04/19 00:10:09;;;;;;;6.03;4.20;;;13.90;44.50;;;;;;5015791;28;20037;-81
2021/04/19 00:12:35;;;;;;;4.95;3.60;;;13.90;44.50;;;;;;5015831;28;20049;-80
2021/04/19 00:15:04;;;;;;;6.10;4.13;;;13.90;44.50;;;;;;5016146;28;20133;-78
2021/04/19 00:17:31;;;;;;;10.05;4.70;;;13.90;44.50;;;;;;4997864;28;20034;-79
2021/04/19 00:19:57;;;;;;;6.05;4.10;;;13.80;44.50;;;;;;5015451;28;20042;-80
2021/04/19 00:22:23;;;;;;;6.90;3.80;;;13.80;44.60;;;;;;5015267;28;20100;-81
2021/04/19 00:24:48;;;;;;;7.43;3.95;;;13.80;44.60;;;;;;5015546;28;20049;-80
2021/04/19 00:27:14;;;;;;;5.97;3.90;;;13.80;44.70;;;;;;5015322;28;20081;-79
2021/04/19 00:29:40;;;;;;;5.68;4.25;;;13.80;44.60;;;;;;5015528;28;20136;-79
2021/04/19 00:32:06;;;;;;;6.55;3.90;;;13.70;44.60;;;;;;5015462;28;20038;-80
2021/04/19 00:34:32;;;;;;;8.23;4.22;;;13.70;44.60;;;;;;5014654;28;20041;-79
2021/04/19 00:36:58;;;;;;;7.18;4.05;;;13.80;44.70;;;;;;5014969;28;20053;-79
2021/04/19 00:39:24;;;;;;;6.38;3.67;;;13.70;44.60;;;;;;5015471;28;20490;-80
2021/04/19 00:41:50;;;;;;;6.82;3.72;;;13.70;44.70;;;;;;5015427;28;20037;-80
2021/04/19 00:44:17;;;;;;;5.50;4.05;;;13.60;44.70;;;;;;5015036;28;20148;-79
2021/04/19 00:46:42;;;;;;;4.35;3.80;;;13.70;44.80;;;;;;5014926;28;20058;-79
2021/04/19 00:49:09;;;;;;;7.20;3.90;;;13.60;44.70;;;;;;5015187;28;20041;-79
2021/04/19 00:51:35;;;;;;;6.70;3.95;;;13.60;44.80;;;;;;5015157;28;20037;-78
2021/04/19 00:54:01;;;;;;;6.28;4.35;;;13.60;44.80;;;;;;5015256;28;20121;-80
2021/04/19 00:56:27;;;;;;;8.15;4.13;;;13.60;44.80;;;;;;5015206;28;20038;-79
2021/04/19 00:58:53;;;;;;;8.18;3.92;;;13.50;44.80;;;;;;5014955;28;20410;-78
2021/04/19 01:01:19;;;;;;;5.90;4.10;;;13.50;44.80;;;;;;5014915;28;20117;-79
2021/04/19 01:03:45;;;;;;;5.45;3.70;;;13.50;44.80;;;;;;5014357;28;20054;-78
2021/04/19 01:06:11;;;;;;;6.65;3.92;;;13.50;44.90;;;;;;4997015;28;20406;-78
2021/04/19 01:08:38;;;;;;;6.78;3.60;;;13.50;45.00;;;;;;5014443;28;20030;-79
2021/04/19 01:11:04;;;;;;;6.20;3.85;;;13.50;45.00;;;;;;4996834;28;20132;-78
2021/04/19 01:13:31;;;;;;;5.07;3.40;;;13.40;45.00;;;;;;5014071;28;20180;-79
2021/04/19 01:15:57;;;;;;;6.05;4.05;;;13.40;45.00;;;;;;4996912;28;20133;-79
2021/04/19 01:18:24;;;;;;;7.00;4.47;;;13.40;45.00;;;;;;5014098;28;20120;-79
2021/04/19 01:20:51;;;;;;;5.72;3.67;;;13.40;45.00;;;;;;4996869;28;20061;-78
2021/04/19 01:23:19;;;;;;;6.82;3.90;;;13.40;45.00;;;;;;4996194;28;20042;-79
2021/04/19 01:25:46;;;;;;;6.85;3.78;;;13.40;45.00;;;;;;5014329;28;20410;-77
2021/04/19 01:28:14;;;;;;;6.85;3.60;;;13.40;45.00;;;;;;5013283;28;20037;-78
2021/04/19 01:30:46;;;;;;;3.97;3.30;;;13.30;45.00;;;;;;4997347;28;20455;-78
2021/04/19 01:33:13;;;;;;;7.10;4.18;;;13.30;45.10;;;;;;4996967;28;20160;-77
2021/04/19 01:35:42;;;;;;;4.75;3.28;;;13.30;45.10;;;;;;5014520;28;20409;-79
2021/04/19 01:38:11;;;;;;;5.50;4.15;;;13.30;45.70;;;;;;4996777;28;20402;-77
2021/04/19 01:40:38;;;;;;;4.82;3.80;;;13.30;45.30;;;;;;5014613;28;20056;-79
2021/04/19 01:43:04;;;;;;;5.75;3.70;;;13.20;45.20;;;;;;5014407;28;20184;-78
2021/04/19 01:45:42;;;;;;;6.25;3.60;;;13.20;45.20;;;;;;4996971;28;20062;-78
2021/04/19 01:48:09;;;;;;;4.75;3.85;;;13.20;45.20;;;;;;5014244;28;20050;-78
2021/04/19 01:50:36;;;;;;;4.55;3.70;;;13.20;45.40;;;;;;5013026;28;20046;-77
2021/04/19 01:53:03;;;;;;;3.97;3.35;;;13.20;45.40;;;;;;5014361;28;20030;-77
2021/04/19 01:55:32;;;;;;;6.25;3.88;;;13.20;45.40;;;;;;4996657;28;20481;-78
2021/04/19 01:58:10;;;;;;;6.40;4.00;;;13.20;45.50;;;;;;4996564;28;20045;-78
2021/04/19 02:00:39;;;;;;;7.93;4.07;;;13.20;45.50;;;;;;5014262;28;20080;-78
2021/04/19 02:03:06;;;;;;;7.35;3.58;;;13.10;45.50;;;;;;4996520;28;20050;-78
2021/04/19 02:06:02;;;;;;;5.13;3.65;;;13.10;45.40;;;;;;5014506;28;20026;-77
2021/04/19 02:08:38;;;;;;;5.78;3.55;;;13.10;45.50;;;;;;4996020;28;20084;-78
2021/04/19 02:11:24;;;;;;;6.82;4.22;;;13.10;45.50;;;;;;5012693;28;20483;-78
2021/04/19 02:14:26;;;;;;;6.20;3.47;;;13.10;45.50;;;;;;5012397;28;20037;-79
2021/04/19 02:17:01;;;;;;;6.57;3.50;;;13.10;45.60;;;;;;4996054;28;20135;-79
2021/04/19 02:19:42;;;;;;;7.60;4.22;;;13.10;45.60;;;;;;5012662;28;20140;-80
2021/04/19 02:22:28;;;;;;;5.35;4.10;;;13.00;45.60;;;;;;5014051;28;20104;-78
2021/04/19 02:25:10;;;;;;;8.52;4.22;;;13.10;45.80;;;;;;5013454;28;20041;-79
2021/04/19 02:27:41;;;;;;;7.38;4.60;;;13.00;45.80;;;;;;5012156;28;20030;-79
2021/04/19 02:30:14;;;;;;;5.70;4.20;;;13.00;45.70;;;;;;5013357;28;20498;-80
2021/04/19 02:32:46;;;;;;;5.18;3.67;;;13.00;45.80;;;;;;4996624;28;20473;-78
2021/04/19 02:35:17;;;;;;;6.47;4.55;;;13.00;45.80;;;;;;5012718;28;20041;-80
2021/04/19 02:37:56;;;;;;;5.72;3.67;;;13.00;45.90;;;;;;4995947;28;20033;-76
2021/04/19 02:40:27;;;;;;;8.75;4.60;;;13.00;45.90;;;;;;4995879;28;20592;-81
2021/04/19 02:42:55;;;;;;;6.25;4.07;;;13.00;45.90;;;;;;5013424;28;20057;-79
2021/04/19 02:45:23;;;;;;;4.20;3.65;;;13.00;46.00;;;;;;5013099;28;20050;-80
2021/04/19 02:48:02;;;;;;;5.68;3.92;;;13.00;46.00;;;;;;5013298;28;20050;-79
2021/04/19 02:50:36;;;;;;;;;;;13.00;46.00;;;;;;4966201;28;20046;-79
2021/04/19 02:53:03;;;;;;;4.85;3.50;;;13.00;46.00;;;;;;5013276;28;19913;-79
2021/04/19 02:55:31;;;;;;;5.63;3.33;;;13.00;45.90;;;;;;5013458;28;20046;-78
2021/04/19 02:58:02;;;;;;;5.82;3.88;;;13.10;45.90;;;;;;5013073;28;20101;-79
2021/04/19 03:00:37;;;;;;;6.25;3.40;;;13.10;46.00;;;;;;5016386;28;20045;-79
2021/04/19 03:03:12;;;;;;;4.13;2.80;;;13.10;45.90;;;;;;5016938;28;20057;-78
2021/04/19 03:05:44;;;;;;;5.93;3.10;;;13.20;45.90;;;;;;5015947;28;20056;-80
2021/04/19 03:08:17;;;;;;;3.72;3.00;;;13.20;45.80;;;;;;5015820;28;20506;-78
2021/04/19 03:10:59;;;;;;;7.10;2.92;;;13.20;45.80;;;;;;4999489;28;20041;-78
2021/04/19 03:13:28;;;;;;;4.60;2.45;;;13.20;45.80;;;;;;5016962;28;20052;-79
2021/04/19 03:16:00;;;;;;;3.80;2.38;;;13.30;45.80;;;;;;4999576;28;20041;-78
2021/04/19 03:18:36;;;;;;;6.00;2.72;;;13.30;45.80;;;;;;5016467;28;20038;-78
2021/04/19 03:21:10;;;;;;;6.50;2.50;;;13.30;45.80;;;;;;4998978;28;20041;-79
2021/04/19 03:23:48;;;;;;;4.47;2.53;;;13.30;45.80;;;;;;5016521;28;20065;-79
2021/04/19 03:26:24;;;;;;;4.78;2.22;;;13.30;45.80;;;;;;4999021;28;20049;-79
2021/04/19 03:28:51;;;;;;;5.22;2.10;;;13.40;45.80;;;;;;5015110;28;20449;-76
2021/04/19 03:31:29;;;;;;;3.55;1.90;;;13.40;45.70;;;;;;4999022;28;20034;-78
2021/04/19 03:34:09;;;;;;;4.25;2.20;;;13.40;45.60;;;;;;5015111;28;20053;-75
2021/04/19 03:36:38;;;;;;;2.80;1.90;;;13.50;45.60;;;;;;4998844;28;20042;-76
2021/04/19 03:39:07;;;;;;;3.65;2.20;;;13.50;45.60;;;;;;5014882;28;20029;-77
2021/04/19 03:41:40;;;;;;;3.70;2.05;;;13.50;45.60;;;;;;5016472;28;20125;-75
2021/04/19 03:44:09;;;;;;;3.72;2.00;;;13.60;45.60;;;;;;5014899;28;20034;-76
2021/04/19 03:46:39;;;;;;;3.97;2.05;;;13.60;45.50;;;;;;5014404;28;20485;-75
2021/04/19 03:49:15;;;;;;;5.38;2.30;;;13.70;45.40;;;;;;5014820;28;20457;-77
2021/04/19 03:51:55;;;;;;;3.15;2.13;;;13.70;45.40;;;;;;4999413;28;20573;-75
2021/04/19 03:54:26;;;;;;;4.03;2.05;;;13.80;45.40;;;;;;4998441;28;20034;-76
2021/04/19 03:56:52;;;;;;;4.95;2.33;;;13.90;45.40;;;;;;5014413;28;20037;-77
2021/04/19 03:59:24;;;;;;;4.97;2.17;;;13.90;45.20;;;;;;5015808;28;20453;-78
2021/04/19 04:02:03;;;;;;;2.22;1.90;;;13.90;45.10;;;;;;5015785;28;20030;-76
2021/04/19 04:04:40;;;;;;;2.90;1.80;;;14.00;45.10;;;;;;4998209;28;20077;-78
2021/04/19 04:07:19;;;;;;;5.63;2.05;;;14.10;45.00;;;;;;4983934;28;20037;-80
2021/04/19 04:09:51;;;;;;;4.13;2.00;;;14.10;45.00;;;;;;4982632;28;20038;-79
2021/04/19 04:12:18;;;;;;;3.72;2.10;;;14.10;44.90;;;;;;4998214;28;20034;-78
2021/04/19 04:14:52;;;;;;;4.40;2.25;;;14.20;45.00;;;;;;4997623;28;20092;-78
2021/04/19 04:17:22;;;;;;;6.23;2.30;;;14.20;44.80;;;;;;5015648;28;20053;-79
2021/04/19 04:20:21;;;;;;;5.60;1.95;;;14.30;44.80;;;;;;4982330;28;20046;-80
2021/04/19 04:22:58;;;;;;;2.70;1.90;;;14.40;44.70;;;;;;5013847;28;20045;-81
2021/04/19 04:25:31;;;;;;;4.72;2.00;;;14.50;44.50;;;;;;4998138;28;20033;-78
2021/04/19 04:27:57;;;;;;;5.28;2.22;;;14.60;44.50;;;;;;5015419;28;20045;-80
2021/04/19 04:30:24;;;;;;;2.33;1.90;;;14.70;44.40;;;;;;4981702;28;20034;-78
2021/04/19 04:33:09;;;;;;;4.07;2.63;;;14.90;44.20;;;;;;4984084;28;20135;-79
2021/04/19 04:35:39;;;;;;;5.18;2.22;;;15.20;44.00;;;;;;4997476;28;20128;-78
2021/04/19 04:38:11;;;;;;;7.72;2.72;;;15.50;43.70;;;;;;5014248;28;20033;-81
2021/04/19 04:40:47;;;;;;;4.82;2.22;;;15.90;43.40;;;;;;4997981;28;20049;-80
2021/04/19 04:43:23;;;;;;;3.75;2.40;;;16.20;42.70;;;;;;5014532;28;20145;-80
2021/04/19 04:45:55;;;;;;;4.93;2.08;;;16.80;42.20;;;;;;4997533;28;20153;-81
2021/04/19 04:48:43;;;;;;;5.72;2.22;;;17.20;41.50;;;;;;5013240;28;20072;-82
2021/04/19 04:51:16;;;;;;;4.72;1.95;;;17.50;40.70;;;;;;5014954;28;20042;-82
2021/04/19 04:53:54;;;;;;;2.80;1.90;;;17.80;40.50;;;;;;5013531;28;20041;-81
2021/04/19 04:56:24;;;;;;;2.78;2.00;;;18.00;39.90;;;;;;5014575;28;20096;-81
2021/04/19 04:58:53;;;;;;;3.65;2.03;;;18.10;39.70;;;;;;4997101;28;20560;-81
2021/04/19 05:01:22;;;;;;;4.88;2.25;;;18.30;39.40;;;;;;5014835;28;20030;-81
2021/04/19 05:03:49;;;;;;;5.85;2.65;;;18.60;39.20;;;;;;5014792;28;20045;-82
2021/04/19 05:06:16;;;;;;;4.78;2.50;;;18.80;38.90;;;;;;4997206;28;20426;-81
2021/04/19 05:08:42;;;;;;;6.03;2.40;;;19.00;38.60;;;;;;5014291;28;20121;-81
2021/04/19 05:11:11;;;;;;;3.70;1.92;;;19.10;38.40;;;;;;5014194;28;20121;-82
2021/04/19 05:13:37;;;;;;;4.03;1.92;;;19.20;38.20;;;;;;5014541;28;20172;-82
2021/04/19 05:16:04;;;;;;;3.40;2.15;;;19.30;38.10;;;;;;5014877;28;20033;-81
2021/04/19 05:18:30;;;;;;;5.72;2.00;;;19.30;38.10;;;;;;5014621;28;20049;-80
2021/04/19 05:20:56;;;;;;;6.15;1.75;;;19.20;38.00;;;;;;5013578;28;20069;-81
2021/04/19 05:23:22;;;;;;;3.08;1.48;;;19.00;37.90;;;;;;4996486;28;20038;-81
2021/04/19 05:25:49;;;;;;;3.88;1.98;;;18.90;37.90;;;;;;5014210;28;20041;-82
2021/04/19 05:28:18;;;;;;;2.50;1.73;;;18.70;38.10;;;;;;5014223;28;20441;-81
2021/04/19 05:30:48;;;;;;;2.30;1.52;;;18.60;38.40;;;;;;5014103;28;20120;-82
2021/04/19 05:33:14;;;;;;;4.05;1.70;;;18.50;38.50;;;;;;4996321;28;20041;-82
2021/04/19 05:35:41;;;;;;;5.28;2.45;;;18.50;38.50;;;;;;5014101;28;20117;-81
2021/04/19 05:38:07;;;;;;;3.75;1.70;;;18.40;38.50;;;;;;5013567;28;20129;-82
2021/04/19 05:40:36;;;;;;;5.90;2.30;;;18.30;38.60;;;;;;4996234;28;20041;-82
2021/04/19 05:43:04;;;;;;;3.00;1.42;;;18.20;38.70;;;;;;5012736;28;20046;-83
2021/04/19 05:45:31;;;;;;;2.63;1.98;;;18.00;38.90;;;;;;5012395;28;20521;-80
2021/04/19 05:47:59;;;;;;;3.95;1.80;;;17.90;39.10;;;;;;5011964;28;20093;-76
2021/04/19 05:50:26;;;;;;;3.97;1.75;;;17.80;39.20;;;;;;4995493;28;20066;-77
2021/04/19 05:52:54;;;;;;;4.38;1.88;;;17.80;39.50;;;;;;4995439;28;20037;-78
2021/04/19 05:55:25;;;;;;;4.60;1.80;;;17.80;39.70;;;;;;4995941;28;20033;-78
2021/04/19 05:57:57;;;;;;;7.63;1.85;;;17.80;39.70;;;;;;4996138;28;20057;-80
2021/04/19 06:00:30;;;;;;;3.05;1.75;;;17.80;39.80;;;;;;5012532;28;20103;-77
2021/04/19 06:03:08;;;;;;;4.97;1.70;;;17.80;39.70;;;;;;5013634;28;20054;-77
2021/04/19 06:05:53;;;;;;;4.00;2.17;;;17.80;39.80;;;;;;5013123;28;20037;-76
2021/04/19 06:08:32;;;;;;;3.40;2.10;;;17.80;39.90;;;;;;4996032;28;20061;-78
2021/04/19 06:11:13;;;;;;;4.00;2.13;;;17.80;39.90;;;;;;4995868;28;20037;-77
2021/04/19 06:14:04;;;;;;;3.00;1.63;;;17.80;40.10;;;;;;4995489;28;20107;-78
2021/04/19 06:16:36;;;;;;;4.05;1.88;;;17.80;40.10;;;;;;4995717;28;20398;-81
2021/04/19 06:19:05;;;;;;;3.08;1.83;;;17.80;40.00;;;;;;4995391;28;20041;-80
2021/04/19 06:21:31;;;;;;;6.05;2.40;;;17.80;40.00;;;;;;4995560;28;20038;-77
2021/04/19 06:24:02;;;;;;;2.83;1.73;;;17.80;39.90;;;;;;5012883;28;20038;-77
2021/04/19 06:26:29;;;;;;;2.50;1.65;;;17.90;40.00;;;;;;5013218;28;20173;-78
2021/04/19 06:28:55;;;;;;;4.05;1.60;;;17.90;39.80;;;;;;4980083;28;20041;-78
2021/04/19 06:31:23;;;;;;;4.82;1.60;;;18.10;39.70;;;;;;5013524;28;20042;-77
2021/04/19 06:34:09;;;;;;;2.22;1.52;;;18.20;39.60;;;;;;4995091;28;20041;-78
2021/04/19 06:36:41;;;;;;;3.63;1.70;;;18.50;39.30;;;;;;4995868;28;20127;-78
2021/04/19 06:39:09;;;;;;;4.78;2.00;;;18.80;39.10;;;;;;4995628;28;20034;-78
2021/04/19 06:41:35;;;;;;;3.38;2.00;;;19.20;38.70;;;;;;4995700;28;20057;-79
2021/04/19 06:44:03;;;;;;;4.50;1.80;;;19.60;38.30;;;;;;5013063;28;20049;-80
2021/04/19 06:46:34;;;;;;;3.58;1.70;;;19.90;37.80;;;;;;5012714;28;20037;-80
2021/04/19 06:49:01;;;;;;;4.10;1.45;;;20.30;37.50;;;;;;4994713;28;20589;-81
2021/04/19 06:51:27;;;;;;;3.00;1.90;;;20.60;37.20;;;;;;5011044;28;20413;-80
2021/04/19 06:53:57;;;;;;;4.55;1.90;;;20.90;36.90;;;;;;5012431;28;20034;-80
2021/04/19 06:56:26;;;;;;;3.70;2.00;;;21.20;36.60;;;;;;5012640;28;20033;-78
2021/04/19 06:58:56;;;;;;;4.10;2.03;;;21.50;36.40;;;;;;5012792;28;20509;-77
2021/04/19 07:01:28;;;;;;;3.72;1.77;;;21.70;36.00;;;;;;5012903;28;20137;-77
2021/04/19 07:04:17;;;;;;;3.85;1.60;;;22.00;35.70;;;;;;5011492;28;20555;-77
2021/04/19 07:06:44;;;;;;;5.05;1.77;;;22.10;35.20;;;;;;5011123;28;20037;-76
2021/04/19 07:09:16;;;;;;;3.50;1.60;;;22.20;35.20;;;;;;4994984;28;20137;-80
2021/04/19 07:11:44;;;;;;;6.22;1.92;;;22.40;35.00;;;;;;5013058;28;20062;-78
2021/04/19 07:14:15;;;;;;;6.60;2.08;;;22.50;35.10;;;;;;5012670;28;20117;-77
2021/04/19 07:16:41;;;;;;;4.63;1.67;;;22.60;36.10;;;;;;4994867;28;20034;-79
2021/04/19 07:19:07;;;;;;;6.15;1.90;;;22.70;36.70;;;;;;5012399;28;20080;-76
2021/04/19 07:21:34;;;;;;;6.05;2.00;;;22.80;36.70;;;;;;5013200;28;20042;-80
2021/04/19 07:24:02;;;;;;;2.30;1.60;;;22.80;36.50;;;;;;5012462;28;20084;-76
2021/04/19 07:26:29;;;;;;;7.45;1.73;;;22.80;36.30;;;;;;5012091;28;20045;-79
2021/04/19 07:28:55;;;;;;;4.78;1.98;;;22.70;36.30;;;;;;5012300;28;20129;-81
2021/04/19 07:31:21;;;;;;;3.85;1.73;;;22.60;36.40;;;;;;5012499;28;20129;-78
2021/04/19 07:33:47;;;;;;;2.40;1.60;;;22.50;36.20;;;;;;5012540;28;20129;-79
2021/04/19 07:36:24;;;;;;;2.88;1.55;;;22.50;36.30;;;;;;5012087;28;20068;-78
2021/04/19 07:38:51;;;;;;;2.30;1.38;;;22.50;36.50;;;;;;5012277;28;20161;-79
2021/04/19 07:41:17;;;;;;;3.53;1.67;;;22.40;36.30;;;;;;5011906;28;20112;-79
2021/04/19 07:43:45;;;;;;;4.82;1.70;;;22.30;36.20;;;;;;5011678;28;20041;-77
2021/04/19 07:46:14;;;;;;;4.18;1.70;;;22.20;36.30;;;;;;5015580;28;20046;-75
2021/04/19 07:48:51;;;;;;;5.32;1.70;;;22.20;36.10;;;;;;5016269;28;20087;-76
2021/04/19 07:51:35;;;;;;;3.42;1.73;;;22.20;36.10;;;;;;5015895;28;20191;-76
2021/04/19 07:54:37;;;;;;;2.17;1.50;;;22.10;36.20;;;;;;5014318;28;20038;-77
2021/04/19 07:57:06;;;;;;;6.70;1.75;;;22.00;36.00;;;;;;4936293;29;20031;-76
2021/04/19 07:59:38;;;;;;;7.10;2.22;;;21.80;35.90;;;;;;4970862;28;20049;-77
2021/04/19 08:02:16;;;;;;;4.10;1.63;;;21.70;36.00;;;;;;5014322;28;20034;-76
2021/04/19 08:04:51;;;;;;;3.05;1.55;;;21.70;36.20;;;;;;5015781;28;20042;-81
2021/04/19 08:07:22;;;;;;;3.88;1.80;;;21.60;36.30;;;;;;4998574;28;20030;-80
2021/04/19 08:10:02;;;;;;;5.65;1.80;;;21.30;35.10;;;;;;5016321;28;20387;-81
2021/04/19 08:12:40;;;;;;;4.78;1.90;;;20.80;33.60;;;;;;5015637;28;20045;-80
2021/04/19 08:15:12;;;;;;;5.25;2.10;;;20.30;33.40;;;;;;4997616;28;20091;-80
2021/04/19 08:17:39;;;;;;;5.75;1.80;;;20.00;33.60;;;;;;4998315;28;20038;-80
2021/04/19 08:20:07;;;;;;;3.38;1.60;;;19.70;33.90;;;;;;5015463;28;20034;-80
2021/04/19 08:22:33;;;;;;;4.63;2.00;;;19.60;34.40;;;;;;5014610;28;20037;-77
2021/04/19 08:25:17;;;;;;;6.85;1.98;;;19.30;34.70;;;;;;4997972;28;20073;-79
2021/04/19 08:28:04;;;;;;;4.55;1.88;;;19.30;34.90;;;;;;5014655;28;20421;-79
2021/04/19 08:30:30;;;;;;;8.57;2.00;;;19.20;34.90;;;;;;4996961;28;20084;-77
2021/04/19 08:32:57;;;;;;;6.45;1.90;;;19.20;34.90;;;;;;5015142;28;20041;-77
2021/04/19 08:35:28;;;;;;;2.97;2.05;;;19.10;34.90;;;;;;4997554;28;20091;-78
2021/04/19 08:37:56;;;;;;;4.20;2.03;;;18.90;34.90;;;;;;5015050;28;20030;-78
2021/04/19 08:40:25;;;;;;;5.97;2.42;;;18.80;35.10;;;;;;5013601;28;20030;-77
2021/04/19 08:42:55;;;;;;;5.50;2.20;;;18.70;35.10;;;;;;5015218;28;20486;-78
2021/04/19 08:45:21;;;;;;;5.28;2.75;;;18.60;35.20;;;;;;5015391;28;20107;-78
2021/04/19 08:47:48;;;;;;;5.28;1.80;;;18.50;35.30;;;;;;5013641;28;20528;-77
2021/04/19 08:50:18;;;;;;;4.65;2.08;;;18.40;35.40;;;;;;4996926;28;20037;-78
2021/04/19 08:52:45;;;;;;;4.80;2.38;;;18.30;35.60;;;;;;5013343;28;20037;-78
2021/04/19 08:55:13;;;;;;;4.60;2.08;;;18.20;35.60;;;;;;5014509;28;20033;-78
2021/04/19 08:57:44;;;;;;;4.78;2.00;;;18.20;35.60;;;;;;4996251;28;20128;-78
2021/04/19 09:00:28;;;;;;;2.60;1.50;;;18.00;35.70;;;;;;5014509;28;20034;-77
2021/04/19 09:02:58;;;;;;;4.45;2.33;;;17.90;35.80;;;;;;4996977;28;20046;-77
2021/04/19 09:05:25;;;;;;;3.97;1.92;;;17.90;35.90;;;;;;4996747;28;20041;-77
2021/04/19 09:08:04;;;;;;;3.97;1.70;;;17.90;36.00;;;;;;5014643;28;20026;-76
2021/04/19 09:10:48;;;;;;;4.85;1.85;;;17.80;35.80;;;;;;5014523;28;20483;-76
2021/04/19 09:13:31;;;;;;;6.03;1.70;;;17.80;35.90;;;;;;4997034;28;20089;-77
2021/04/19 09:16:17;;;;;;;6.85;2.00;;;17.70;36.00;;;;;;5012840;28;20486;-77
2021/04/19 09:18:54;;;;;;;4.25;1.95;;;17.70;36.10;;;;;;4996942;28;20071;-77
2021/04/19 09:21:51;;;;;;;3.95;1.80;;;17.80;36.20;;;;;;5014339;28;20119;-78
2021/04/19 09:24:23;;;;;;;10.82;2.20;;;17.80;36.10;;;;;;5013706;28;20041;-77
2021/04/19 09:26:53;;;;;;;3.80;2.00;;;17.70;36.10;;;;;;4996956;28;20167;-77
2021/04/19 09:29:25;;;;;;;4.00;2.22;;;17.70;36.10;;;;;;5014160;28;20045;-77
2021/04/19 09:32:19;;;;;;;5.18;2.10;;;17.60;36.00;;;;;;5013850;28;20041;-77
2021/04/19 09:34:49;;;;;;;3.67;2.05;;;17.50;36.00;;;;;;4996153;28;20125;-77
2021/04/19 09:37:18;;;;;;;6.40;2.50;;;17.60;36.10;;;;;;5013619;28;20552;-76
2021/04/19 09:39:52;;;;;;;6.97;2.20;;;17.60;36.10;;;;;;5013731;28;20046;-78
2021/04/19 09:43:17;;;;;;;4.53;1.88;;;17.50;35.80;;;;;;5013849;28;20073;-78
2021/04/19 09:45:45;;;;;;;6.35;2.05;;;17.40;35.70;;;;;;5013625;28;20045;-78
2021/04/19 09:48:26;;;;;;;4.53;2.03;;;17.40;36.00;;;;;;5013649;28;20064;-79
2021/04/19 09:50:53;;;;;;;3.88;1.92;;;17.30;36.00;;;;;;5015693;28;20042;-78
2021/04/19 09:53:19;;;;;;;4.30;2.05;;;17.30;35.80;;;;;;5014062;28;20042;-80
2021/04/19 09:55:45;;;;;;;8.07;2.17;;;17.20;35.70;;;;;;5013727;28;20099;-77
2021/04/19 09:58:12;;;;;;;20.60;2.85;;;17.10;35.80;;;;;;5013668;28;20034;-77
2021/04/19 10:00:38;;;;;;;3.78;2.17;;;17.10;35.90;;;;;;5012585;28;20036;-77
2021/04/19 10:03:06;;;;;;;5.45;2.00;;;17.00;35.80;;;;;;5013160;28;20132;-77
2021/04/19 10:05:33;;;;;;;4.20;2.38;;;17.00;35.90;;;;;;4995733;28;20041;-77
2021/04/19 10:08:04;;;;;;;4.78;2.35;;;16.90;36.00;;;;;;5013074;28;20478;-78
2021/04/19 10:10:31;;;;;;;3.08;2.05;;;16.90;36.10;;;;;;5013056;28;20125;-77
2021/04/19 10:12:57;;;;;;;5.38;2.70;;;16.90;36.20;;;;;;5013058;28;20053;-77
2021/04/19 10:15:25;;;;;;;6.32;2.60;;;16.80;36.30;;;;;;5013543;28;20486;-81
2021/04/19 10:17:52;;;;;;;5.38;2.35;;;16.80;36.40;;;;;;4996450;28;20474;-78
2021/04/19 10:20:24;;;;;;;4.55;2.70;;;16.80;36.40;;;;;;5013002;28;20037;-80
2021/04/19 10:23:14;;;;;;;6.03;2.20;;;16.80;36.40;;;;;;5011905;28;20041;-78
2021/04/19 10:25:49;;;;;;;6.38;2.70;;;16.80;36.30;;;;;;4995820;28;20038;-81
2021/04/19 10:28:36;;;;;;;4.45;2.45;;;16.80;36.40;;;;;;5013867;28;20073;-81
2021/04/19 10:31:20;;;;;;;3.67;2.42;;;16.80;36.40;;;;;;5014213;28;20434;-79
2021/04/19 10:33:54;;;;;;;4.68;2.53;;;16.80;36.40;;;;;;4996736;28;20037;-82
2021/04/19 10:36:26;;;;;;;6.43;3.13;;;16.80;36.50;;;;;;4995734;28;20399;-80
2021/04/19 10:38:54;;;;;;;6.90;2.78;;;16.80;36.50;;;;;;5012983;28;20033;-80
2021/04/19 10:41:34;;;;;;;6.68;2.85;;;16.80;36.50;;;;;;5015550;28;20034;-80
2021/04/19 10:44:02;;;;;;;6.93;3.30;;;16.80;36.60;;;;;;5013701;28;20038;-82
2021/04/19 10:46:30;;;;;;;6.07;2.85;;;16.90;36.60;;;;;;4995264;28;20100;-80
2021/04/19 10:48:57;;;;;;;7.90;2.92;;;16.90;36.70;;;;;;4995204;28;20073;-79
2021/04/19 10:51:26;;;;;;;4.60;3.22;;;16.90;36.60;;;;;;5012719;28;20040;-81
2021/04/19 10:53:54;;;;;;;5.28;3.10;;;16.90;36.50;;;;;;5012935;28;20128;-80
2021/04/19 10:56:22;;;;;;;8.10;3.28;;;16.80;36.40;;;;;;5012610;28;20454;-81
2021/04/19 10:58:49;;;;;;;6.72;2.60;;;16.80;36.40;;;;;;5012779;28;20132;-79
2021/04/19 11:01:20;;;;;;;5.60;2.15;;;16.80;36.50;;;;;;5013207;28;20482;-80
2021/04/19 11:03:47;;;;;;;8.43;2.63;;;16.80;36.50;;;;;;5011897;28;20057;-78
2021/04/19 11:06:15;;;;;;;3.72;2.25;;;16.80;36.60;;;;;;5012860;28;20076;-80
2021/04/19 11:09:01;;;;;;;4.38;2.28;;;16.80;36.50;;;;;;5012964;28;20041;-80
2021/04/19 11:11:35;;;;;;;10.77;2.35;;;16.80;36.50;;;;;;5012994;28;20045;-80
2021/04/19 11:14:23;;;;;;;4.93;2.55;;;16.70;36.30;;;;;;4995390;28;20124;-81
2021/04/19 11:16:52;;;;;;;5.80;2.35;;;16.70;36.30;;;;;;5012714;28;20041;-79
2021/04/19 11:19:31;;;;;;;3.63;2.45;;;16.70;36.40;;;;;;4995640;28;20033;-79
2021/04/19 11:21:57;;;;;;;4.90;2.60;;;16.70;36.30;;;;;;5016780;28;20049;-80
2021/04/19 11:24:38;;;;;;;8.60;3.40;;;16.70;36.40;;;;;;5016430;28;20141;-77
2021/04/19 11:27:08;;;;;;;6.60;2.33;;;16.70;36.40;;;;;;5016328;28;20410;-79
2021/04/19 11:29:36;;;;;;;3.33;2.15;;;16.80;36.40;;;;;;4998511;28;20418;-78
2021/04/19 11:32:02;;;;;;;3.35;2.42;;;16.70;36.30;;;;;;5016444;28;20475;-79
2021/04/19 11:34:38;;;;;;;5.35;2.05;;;16.80;36.40;;;;;;4998756;28;20044;-79
2021/04/19 11:37:05;;;;;;;4.90;2.33;;;16.70;36.30;;;;;;5016460;28;20037;-78
2021/04/19 11:39:37;;;;;;;6.88;2.33;;;16.80;36.40;;;;;;5015928;28;20114;-79
2021/04/19 11:42:04;;;;;;;7.88;2.75;;;16.70;36.20;;;;;;4998519;28;20573;-80
2021/04/19 11:44:50;;;;;;;5.80;2.40;;;16.70;36.10;;;;;;5015930;28;20038;-79
2021/04/19 11:47:17;;;;;;;5.93;2.55;;;16.70;36.10;;;;;;5014661;28;20064;-79
2021/04/19 11:49:43;;;;;;;7.70;2.47;;;16.70;36.20;;;;;;5016154;28;20401;-79
2021/04/19 11:52:10;;;;;;;4.75;2.50;;;16.70;36.20;;;;;;5015762;28;20125;-79
2021/04/19 11:54:37;;;;;;;5.32;2.38;;;16.70;36.30;;;;;;5016131;28;20132;-79
2021/04/19 11:57:04;;;;;;;6.15;1.83;;;16.70;36.30;;;;;;4998275;28;20645;-80
2021/04/19 11:59:30;;;;;;;5.45;2.05;;;16.70;36.20;;;;;;4998776;28;20429;-80
2021/04/19 12:01:56;;;;;;;6.43;2.25;;;16.70;36.80;;;;;;4998129;28;20042;-79
2021/04/19 12:04:22;;;;;;;7.22;2.10;;;16.60;36.00;;;;;;5015291;28;20034;-79
2021/04/19 12:06:48;;;;;;;5.15;1.83;;;16.60;36.10;;;;;;5015394;28;20032;-78
2021/04/19 12:09:14;;;;;;;3.83;2.30;;;16.60;36.10;;;;;;5015194;28;20123;-77
2021/04/19 12:11:40;;;;;;;4.60;1.80;;;16.60;36.20;;;;;;4998031;28;20034;-79
2021/04/19 12:14:05;;;;;;;6.32;2.10;;;16.60;36.30;;;;;;5015280;28;20033;-78
2021/04/19 12:16:32;;;;;;;4.32;2.47;;;16.60;36.40;;;;;;5015743;28;20065;-77
2021/04/19 12:18:59;;;;;;;3.90;2.45;;;16.60;36.40;;;;;;5015164;28;20084;-77
2021/04/19 12:21:25;;;;;;;4.95;1.90;;;16.60;36.30;;;;;;5014189;28;20129;-79
2021/04/19 12:23:51;;;;;;;5.40;2.22;;;16.60;36.30;;;;;;5014880;28;20069;-78
2021/04/19 12:26:17;;;;;;;2.65;1.83;;;16.60;36.40;;;;;;5015435;28;20076;-78
2021/04/19 12:28:43;;;;;;;3.85;2.00;;;16.60;36.40;;;;;;5015433;28;20442;-80
2021/04/19 12:31:09;;;;;;;4.00;2.03;;;16.70;36.40;;;;;;5014004;28;20056;-79
2021/04/19 12:33:35;;;;;;;5.03;2.20;;;16.70;37.00;;;;;;5015461;28;20425;-80
2021/04/19 12:36:01;;;;;;;5.57;2.38;;;16.60;36.40;;;;;;5015032;28;20041;-79
2021/04/19 12:38:28;;;;;;;4.88;2.22;;;16.60;36.30;;;;;;5014959;28;20041;-82
2021/04/19 12:40:55;;;;;;;14.48;2.42;;;16.60;36.30;;;;;;5014800;28;20050;-78
2021/04/19 12:43:20;;;;;;;4.97;2.17;;;16.60;36.20;;;;;;5015448;28;20379;-80
2021/04/19 12:45:46;;;;;;;3.20;1.80;;;16.50;36.10;;;;;;5016087;28;20049;-80
2021/04/19 12:48:14;;;;;;;3.38;2.10;;;16.50;36.20;;;;;;4998685;28;20061;-79
2021/04/19 12:50:41;;;;;;;4.10;2.47;;;16.50;36.20;;;;;;5016373;28;20033;-80
2021/04/19 12:53:08;;;;;;;4.80;2.10;;;16.50;36.30;;;;;;5015852;28;20048;-79
2021/04/19 12:55:35;;;;;;;4.13;2.50;;;16.60;36.40;;;;;;5015557;28;20528;-82
2021/04/19 12:58:01;;;;;;;8.32;2.70;;;16.60;36.50;;;;;;4997404;28;20034;-80
2021/04/19 13:00:28;;;;;;;5.25;2.50;;;16.50;36.50;;;;;;4997519;28;20045;-79
2021/04/19 13:02:54;;;;;;;6.68;2.53;;;16.60;36.50;;;;;;5014840;28;20128;-78
2021/04/19 13:05:20;;;;;;;5.88;2.10;;;16.50;36.30;;;;;;4997000;28;20042;-80
2021/04/19 13:07:49;;;;;;;7.85;2.60;;;16.50;36.40;;;;;;5013529;28;20066;-80